.
WxDataArchive / Data Records for 2010-07-26
2010-07-25 July 2010 2010-07-27

Data Records for Monday, 26 July 2010

Time	Temp	Chill	HIndex	Humid	Dewpt	 Wind 	HiWind	WindDir	Rain 	Barom 
-----	----	-----	------	-----	-----	------	------	-------	-----	----- 
00:00	67.8	67.8	67.8	80	61.4	0	0	---	0.00	30.091 
00:05	67.6	67.6	67.6	80	61.2	0	0	---	0.00	30.091 
00:10	67.4	67.4	67.4	81	61.4	0	0	---	0.00	30.091 
00:15	67.1	67.1	67.1	81	61.1	0	0	---	0.00	30.092 
00:20	66.9	66.9	66.9	82	61.2	0	0	---	0.00	30.092 
00:25	66.8	66.8	66.8	83	61.5	0	0	---	0.00	30.092 
00:30	66.6	66.6	66.6	83	61.3	0	0	---	0.00	30.096 
00:35	66.4	66.4	66.4	84	61.4	0	0	---	0.00	30.096 
00:40	66.3	66.3	66.3	85	61.6	0	0	---	0.00	30.096 
00:45	66.3	66.3	66.3	85	61.6	0	0	---	0.00	30.100 
00:50	66.1	66.1	66.1	85	61.5	0	0	---	0.00	30.100 
00:55	66.0	66.0	66.0	85	61.4	0	0	---	0.00	30.100 
01:00	65.8	65.8	65.8	85	61.2	0	0	---	0.00	30.100 
01:05	65.8	65.8	65.8	86	61.5	0	0	---	0.00	30.100 
01:10	65.6	65.6	65.6	86	61.3	0	0	---	0.00	30.100 
01:15	65.6	65.6	65.6	86	61.3	0	0	---	0.00	30.099 
01:20	65.6	65.6	65.6	87	61.6	0	0	---	0.00	30.099 
01:25	65.6	65.6	65.6	87	61.6	0	0	---	0.00	30.099 
01:30	65.5	65.5	65.5	87	61.5	0	0	---	0.00	30.102 
01:35	65.5	65.5	65.5	87	61.5	0	0	---	0.00	30.102 
01:40	65.3	65.3	65.3	88	61.6	0	0	---	0.00	30.102 
01:45	65.2	65.2	65.2	88	61.6	0	0	---	0.00	30.099 
01:50	65.0	65.0	65.0	88	61.4	0	0	---	0.00	30.099 
01:55	65.0	65.0	65.0	88	61.4	0	0	---	0.00	30.099 
02:00	64.8	64.8	64.8	88	61.2	0	0	---	0.00	30.101 
02:05	64.8	64.8	64.8	88	61.2	0	0	---	0.00	30.101 
02:10	64.7	64.7	64.7	89	61.4	0	0	---	0.00	30.101 
02:15	64.5	64.5	64.5	89	61.2	0	0	---	0.00	30.098 
02:20	64.5	64.5	64.5	89	61.2	0	0	---	0.00	30.098 
02:25	64.3	64.3	64.3	89	61.0	0	0	---	0.00	30.098 
02:30	64.2	64.2	64.2	90	61.2	0	0	---	0.00	30.101 
02:35	64.2	64.2	64.2	90	61.2	0	0	---	0.00	30.101 
02:40	64.0	64.0	64.0	90	61.0	0	0	---	0.00	30.101 
02:45	63.9	63.9	63.9	90	60.9	0	0	---	0.00	30.103 
02:50	63.7	63.7	63.7	90	60.7	0	0	---	0.00	30.103 
02:55	63.5	63.5	63.5	90	60.5	0	0	---	0.00	30.103 
03:00	63.5	63.5	63.5	91	60.8	0	0	---	0.00	30.105 
03:05	63.4	63.4	63.4	91	60.7	0	0	---	0.00	30.105 
03:10	63.2	63.2	63.2	91	60.5	0	0	---	0.00	30.105 
03:15	63.1	63.1	63.1	91	60.4	0	0	---	0.00	30.104 
03:20	63.1	63.1	63.1	92	60.7	0	0	---	0.00	30.104 
03:25	62.9	62.9	62.9	92	60.5	0	0	---	0.00	30.104 
03:30	62.9	62.9	62.9	92	60.5	0	0	---	0.00	30.105 
03:35	62.7	62.7	62.7	92	60.3	0	0	---	0.00	30.105 
03:40	62.6	62.6	62.6	92	60.2	0	0	---	0.00	30.105 
03:45	62.4	62.4	62.4	92	60.0	0	0	---	0.00	30.109 
03:50	62.3	62.3	62.3	92	59.9	0	0	---	0.00	30.109 
03:55	62.3	62.3	62.3	92	59.9	0	0	---	0.00	30.109 
04:00	62.1	62.1	62.1	93	60.0	0	0	---	0.00	30.110 
04:05	62.1	62.1	62.1	93	60.0	0	0	---	0.00	30.110 
04:10	62.0	62.0	62.0	93	59.9	0	0	---	0.00	30.110 
04:15	61.8	61.8	61.8	93	59.8	0	0	---	0.00	30.110 
04:20	61.8	61.8	61.8	93	59.8	0	0	---	0.00	30.110 
04:25	61.6	61.6	61.6	93	59.6	0	0	---	0.00	30.110 
04:30	61.6	61.6	61.6	93	59.6	0	0	---	0.00	30.110 
04:35	61.5	61.5	61.5	93	59.5	0	0	---	0.00	30.110 
04:40	61.3	61.3	61.3	93	59.3	0	0	---	0.00	30.110 
04:45	61.3	61.3	61.3	94	59.6	0	0	---	0.00	30.113 
04:50	61.2	61.2	61.2	94	59.5	0	0	---	0.00	30.113 
04:55	61.2	61.2	61.2	94	59.5	0	0	---	0.00	30.113 
05:00	61.2	61.2	61.2	94	59.5	0	0	---	0.00	30.120 
05:05	61.0	61.0	61.0	94	59.3	0	0	---	0.00	30.120 
05:10	61.0	61.0	61.0	94	59.3	0	0	---	0.00	30.120 
05:15	61.0	61.0	61.0	94	59.3	0	0	---	0.00	30.124 
05:20	60.9	60.9	60.9	94	59.2	0	0	---	0.00	30.124 
05:25	60.9	60.9	60.9	94	59.2	0	0	---	0.00	30.124 
05:30	60.7	60.7	60.7	94	59.0	0	0	---	0.00	30.129 
05:35	60.7	60.7	60.7	94	59.0	0	0	---	0.00	30.129 
05:40	60.5	60.5	60.5	95	59.1	0	0	---	0.00	30.129 
05:45	60.5	60.5	60.5	95	59.1	0	0	---	0.00	30.129 
05:50	60.4	60.4	60.4	95	59.0	0	0	---	0.00	30.129 
05:55	60.4	60.4	60.4	95	59.0	0	0	---	0.00	30.129 
06:00	60.4	60.4	60.4	95	59.0	0	0	---	0.00	30.134 
06:05	60.2	60.2	60.2	95	58.8	0	0	---	0.00	30.134 
06:10	60.2	60.2	60.2	95	58.8	0	0	---	0.00	30.134 
06:15	60.2	60.2	60.2	95	58.8	0	0	---	0.00	30.142 
06:20	60.1	60.1	60.1	95	58.7	0	0	---	0.00	30.142 
06:25	60.1	60.1	60.1	95	58.7	0	0	---	0.00	30.142 
06:30	60.1	60.1	60.1	95	58.7	0	0	---	0.00	30.148 
06:35	60.1	60.1	60.1	95	58.7	0	0	---	0.00	30.148 
06:40	59.9	59.9	59.9	95	58.5	0	0	---	0.00	30.148 
06:45	59.9	59.9	59.9	95	58.5	0	0	---	0.00	30.149 
06:50	59.9	59.9	59.9	95	58.5	0	0	---	0.00	30.149 
06:55	60.1	60.1	60.1	95	58.7	0	0	---	0.00	30.149 
07:00	60.1	60.1	60.1	96	59.0	0	0	---	0.00	30.156 
07:05	60.2	60.2	60.2	96	59.1	0	0	---	0.00	30.156 
07:10	60.4	60.4	60.4	96	59.3	0	0	---	0.00	30.156 
07:15	60.5	60.5	60.5	96	59.4	0	0	---	0.00	30.159 
07:20	60.7	60.7	60.7	96	59.6	0	0	---	0.00	30.159 
07:25	61.0	61.0	61.0	96	59.8	0	0	---	0.00	30.159 
07:30	61.3	61.3	61.3	96	60.1	0	0	---	0.00	30.160 
07:35	61.8	61.8	61.8	96	60.6	0	0	---	0.00	30.160 
07:40	62.4	62.4	62.4	96	61.2	0	0	---	0.00	30.160 
07:45	63.2	63.2	63.2	96	62.0	0	1	270	0.00	30.161 
07:50	64.0	64.0	64.0	95	62.5	0	1	270	0.00	30.161 
07:55	64.7	64.7	64.7	92	62.3	0	1	270	0.00	30.161 
08:00	65.6	65.6	65.6	90	62.6	0	1	270	0.00	30.162 
08:05	66.4	66.4	66.4	87	62.4	0	2	270	0.00	30.162 
08:10	67.4	67.4	67.4	84	62.4	0	1	270	0.00	30.162 
08:15	68.4	68.4	68.4	81	62.3	0	1	270	0.00	30.166 
08:20	69.1	69.1	69.1	79	62.3	0	2	270	0.00	30.166 
08:25	70.1	70.1	70.1	77	62.5	0	1	270	0.00	30.166 
08:30	70.8	70.8	70.8	76	62.8	0	2	270	0.00	30.167 
08:35	71.5	71.5	71.5	74	62.8	0	1	270	0.00	30.167 
08:40	72.3	72.3	72.3	74	63.5	0	0	---	0.00	30.167 
08:45	73.2	73.2	73.2	72	63.6	0	1	270	0.00	30.165 
08:50	73.7	73.7	73.7	70	63.3	0	1	270	0.00	30.165 
08:55	74.0	74.0	74.0	69	63.2	0	1	270	0.00	30.165 
09:00	74.6	74.6	74.6	67	62.9	0	1	270	0.00	30.166 
09:05	74.9	74.9	74.9	66	62.8	0	2	270	0.00	30.166 
09:10	75.4	75.4	77.3	66	63.2	0	1	270	0.00	30.166 
09:15	75.8	75.8	77.7	65	63.2	0	3	270	0.00	30.171 
09:20	76.3	76.3	78.1	65	63.6	0	1	270	0.00	30.171 
09:25	76.3	76.3	78.2	64	63.2	0	1	270	0.00	30.171 
09:30	76.3	76.3	78.2	64	63.2	0	2	270	0.00	30.172 
09:35	76.3	76.3	78.2	64	63.2	0	3	270	0.00	30.172 
09:40	75.8	75.8	77.7	66	63.6	1	3	90	0.00	30.172 
09:45	75.8	75.8	77.7	66	63.6	0	1	90	0.00	30.169 
09:50	76.1	76.1	78.0	64	63.0	1	2	112	0.00	30.169 
09:55	76.3	76.3	78.2	63	62.8	1	3	112	0.00	30.169 
10:00	76.5	76.5	78.3	65	63.8	0	1	112	0.00	30.168 
10:05	77.0	77.0	78.8	63	63.4	0	3	112	0.00	30.168 
10:10	77.2	77.2	79.0	63	63.6	1	4	112	0.00	30.168 
10:15	77.6	77.6	79.4	62	63.5	0	3	90	0.00	30.169 
10:20	77.7	77.7	79.4	60	62.7	0	2	158	0.00	30.169 
10:25	77.9	77.9	79.6	62	63.8	1	3	135	0.00	30.169 
10:30	78.3	78.3	79.9	58	62.3	1	3	135	0.00	30.171 
10:35	78.5	78.5	80.0	58	62.5	1	4	90	0.00	30.171 
10:40	78.5	78.5	80.1	59	63.0	1	4	90	0.00	30.171 
10:45	78.6	78.6	80.1	58	62.6	0	2	90	0.00	30.169 
10:50	79.0	79.0	80.6	59	63.4	1	2	90	0.00	30.169 
10:55	79.4	79.4	80.9	58	63.3	1	3	90	0.00	30.169 
11:00	79.8	79.8	81.1	55	62.2	0	2	90	0.00	30.167 
11:05	80.1	80.1	81.4	55	62.4	0	2	90	0.00	30.167 
11:10	80.1	80.1	81.5	56	63.0	0	2	90	0.00	30.167 
11:15	80.1	80.1	81.5	56	63.0	0	1	90	0.00	30.164 
11:20	80.7	80.7	82.0	55	63.0	1	5	90	0.00	30.164 
11:25	80.9	80.9	81.9	52	61.6	1	4	90	0.00	30.164 
11:30	80.9	80.9	81.9	52	61.6	1	5	68	0.00	30.165 
11:35	80.7	80.7	81.7	52	61.4	2	4	68	0.00	30.165 
11:40	80.7	80.7	81.8	53	62.0	1	5	90	0.00	30.165 
11:45	81.2	81.2	82.6	55	63.5	1	3	90	0.00	30.165 
11:50	81.6	81.6	82.6	52	62.2	0	3	68	0.00	30.165 
11:55	81.8	81.8	83.0	53	63.0	1	4	90	0.00	30.165 
12:00	82.0	82.0	82.8	50	61.5	1	3	112	0.00	30.161 
12:05	81.8	81.8	82.7	51	61.9	1	4	112	0.00	30.161 
12:10	81.6	81.6	82.9	54	63.3	1	3	112	0.00	30.161 
12:15	82.0	82.0	83.2	53	63.2	0	2	90	0.00	30.161 
12:20	82.0	82.0	82.8	50	61.5	2	4	90	0.00	30.161 
12:25	82.0	82.0	83.4	54	63.7	1	3	90	0.00	30.161 
12:30	82.0	82.0	83.4	54	63.7	0	3	90	0.00	30.160 
12:35	81.6	81.6	82.8	53	62.8	1	5	90	0.00	30.160 
12:40	81.4	81.4	82.3	51	61.5	2	5	90	0.00	30.160 
12:45	81.1	81.1	82.5	55	63.4	3	7	90	0.00	30.158 
12:50	81.1	81.1	81.8	50	60.7	1	4	112	0.00	30.158 
12:55	81.6	81.6	82.3	50	61.1	1	6	90	0.00	30.158 
13:00	82.0	82.0	82.6	49	60.9	1	5	90	0.00	30.154 
13:05	82.2	82.2	82.7	48	60.5	2	4	90	0.00	30.154 
13:10	82.4	82.4	83.2	50	61.9	1	6	112	0.00	30.154 
13:15	81.6	81.6	82.8	53	62.8	2	7	90	0.00	30.155 
13:20	81.8	81.8	82.6	50	61.3	1	2	90	0.00	30.155 
13:25	82.0	82.0	82.9	51	62.1	2	5	90	0.00	30.155 
13:30	81.8	81.8	82.4	49	60.7	2	5	90	0.00	30.153 
13:35	81.8	81.8	82.7	51	61.9	2	7	68	0.00	30.153 
13:40	82.0	82.0	82.6	49	60.9	1	4	90	0.00	30.153 
13:45	82.2	82.2	83.0	50	61.7	1	4	112	0.00	30.151 
13:50	82.2	82.2	83.0	50	61.7	1	4	90	0.00	30.151 
13:55	82.4	82.4	83.0	49	61.3	2	7	90	0.00	30.151 
14:00	82.0	82.0	82.8	50	61.5	1	5	90	0.00	30.146 
14:05	81.4	81.4	82.4	52	62.1	1	3	90	0.00	30.146 
14:10	81.4	81.4	82.1	50	60.9	1	3	112	0.00	30.146 
14:15	82.0	82.0	82.8	50	61.5	1	3	112	0.00	30.143 
14:20	83.0	83.0	83.2	46	60.1	1	4	112	0.00	30.143 
14:25	83.2	83.2	83.4	46	60.2	1	3	90	0.00	30.143 
14:30	82.8	82.8	83.5	49	61.7	2	6	90	0.00	30.140 
14:35	83.0	83.0	83.9	50	62.4	1	3	90	0.00	30.140 
14:40	83.0	83.0	83.4	47	60.7	1	4	68	0.00	30.140 
14:45	83.2	83.2	83.4	46	60.2	0	4	68	0.00	30.139 
14:50	83.0	83.0	83.5	48	61.3	1	4	68	0.00	30.139 
14:55	83.0	83.0	83.9	50	62.4	1	5	90	0.00	30.139 
15:00	82.8	82.8	83.5	49	61.7	0	2	90	0.00	30.139 
15:05	82.4	82.4	83.0	49	61.3	0	3	90	0.00	30.139 
15:10	82.2	82.2	82.8	49	61.1	2	5	90	0.00	30.139 
15:15	82.0	82.0	82.5	48	60.3	1	4	90	0.00	30.136 
15:20	82.2	82.2	82.7	48	60.5	1	3	90	0.00	30.136 
15:25	83.0	83.0	83.7	49	61.8	1	3	90	0.00	30.136 
15:30	83.2	83.2	84.0	49	62.0	1	4	90	0.00	30.134 
15:35	82.8	82.8	83.0	46	59.9	1	6	90	0.00	30.134 
15:40	82.4	82.4	82.6	46	59.5	0	1	112	0.00	30.134 
15:45	82.4	82.4	82.9	48	60.7	0	2	112	0.00	30.135 
15:50	82.4	82.4	82.7	47	60.1	0	2	112	0.00	30.135 
15:55	82.4	82.4	82.9	48	60.7	1	3	112	0.00	30.135 
16:00	82.6	82.6	83.1	48	60.9	1	3	112	0.00	30.130 
16:05	82.2	82.2	82.8	49	61.1	1	4	90	0.00	30.130 
16:10	82.2	82.2	82.7	48	60.5	1	3	90	0.00	30.130 
16:15	82.2	82.2	82.4	46	59.3	1	3	90	0.00	30.126 
16:20	82.2	82.2	82.5	47	59.9	0	2	90	0.00	30.126 
16:25	82.4	82.4	82.7	47	60.1	0	2	90	0.00	30.126 
16:30	82.2	82.2	82.7	48	60.5	1	3	90	0.00	30.124 
16:35	81.8	81.8	82.6	50	61.3	0	2	90	0.00	30.124 
16:40	81.8	81.8	82.3	48	60.2	0	2	90	0.00	30.124 
16:45	81.8	81.8	82.3	48	60.2	0	0	---	0.00	30.113 
16:50	82.0	82.0	82.6	49	60.9	0	1	90	0.00	30.113 
16:55	81.8	81.8	82.4	49	60.7	0	1	90	0.00	30.113 
17:00	81.6	81.6	82.3	50	61.1	0	1	90	0.00	30.109 
17:05	81.8	81.8	82.3	48	60.2	1	3	90	0.00	30.109 
17:10	82.2	82.2	82.8	49	61.1	0	2	90	0.00	30.109 
17:15	82.6	82.6	83.0	47	60.3	0	2	90	0.00	30.098 
17:20	82.6	82.6	83.0	47	60.3	1	2	90	0.00	30.098 
17:25	82.6	82.6	83.0	47	60.3	0	1	90	0.00	30.098 
17:30	82.6	82.6	83.4	50	62.0	1	4	90	0.00	30.096 
17:35	82.8	82.8	83.3	48	61.1	0	3	90	0.00	30.096 
17:40	82.8	82.8	83.7	50	62.2	2	4	90	0.00	30.096 
17:45	82.6	82.6	83.1	48	60.9	0	2	90	0.00	30.093 
17:50	82.4	82.4	82.7	47	60.1	1	4	90	0.00	30.093 
17:55	82.0	82.0	82.6	49	60.9	1	4	90	0.00	30.093 
18:00	82.0	82.0	82.5	48	60.3	1	3	90	0.00	30.087 
18:05	82.2	82.2	82.8	49	61.1	0	2	90	0.00	30.087 
18:10	82.2	82.2	82.8	49	61.1	1	3	90	0.00	30.087 
18:15	82.0	82.0	82.6	49	60.9	1	2	90	0.00	30.081 
18:20	81.8	81.8	82.3	48	60.2	0	2	90	0.00	30.081 
18:25	81.6	81.6	82.5	51	61.7	0	1	90	0.00	30.081 
18:30	81.2	81.2	82.2	52	61.9	0	1	90	0.00	30.084 
18:35	80.9	80.9	81.8	51	61.0	0	1	90	0.00	30.084 
18:40	80.5	80.5	81.4	51	60.7	2	5	90	0.00	30.084 
18:45	80.5	80.5	81.3	50	60.1	0	2	90	0.00	30.080 
18:50	80.3	80.3	81.2	51	60.5	1	4	90	0.00	30.080 
18:55	80.1	80.1	80.9	50	59.8	1	5	90	0.00	30.080 
19:00	80.3	80.3	81.3	52	61.0	0	2	90	0.00	30.081 
19:05	80.3	80.3	81.2	51	60.5	0	3	90	0.00	30.081 
19:10	80.3	80.3	81.1	50	59.9	1	3	90	0.00	30.081 
19:15	80.3	80.3	81.3	52	61.0	1	4	90	0.00	30.076 
19:20	80.1	80.1	81.0	51	60.3	0	2	90	0.00	30.076 
19:25	79.9	79.9	80.8	51	60.1	1	4	90	0.00	30.076 
19:30	79.8	79.8	80.9	53	61.1	1	3	90	0.00	30.071 
19:35	79.8	79.8	81.0	54	61.7	0	1	90	0.00	30.071 
19:40	79.8	79.8	80.8	52	60.6	1	2	90	0.00	30.071 
19:45	79.6	79.6	80.8	54	61.5	0	2	90	0.00	30.065 
19:50	79.6	79.6	80.7	53	60.9	1	4	90	0.00	30.065 
19:55	79.4	79.4	80.5	53	60.8	2	4	90	0.00	30.065 
20:00	79.2	79.2	80.4	53	60.6	1	3	90	0.00	30.063 
20:05	79.0	79.0	80.2	53	60.4	1	3	90	0.00	30.063 
20:10	78.8	78.8	80.1	54	60.7	1	3	90	0.00	30.063 
20:15	78.6	78.6	80.0	56	61.6	0	2	90	0.00	30.054 
20:20	78.6	78.6	80.1	57	62.1	0	1	90	0.00	30.054 
20:25	78.5	78.5	80.0	57	62.0	0	0	---	0.00	30.054 
20:30	78.1	78.1	79.6	57	61.6	0	0	---	0.00	30.057 
20:35	77.9	77.9	79.5	57	61.4	0	1	90	0.00	30.057 
20:40	77.7	77.7	79.3	58	61.7	0	2	90	0.00	30.057 
20:45	77.6	77.6	79.2	58	61.6	0	1	90	0.00	30.064 
20:50	77.4	77.4	79.1	58	61.4	0	0	---	0.00	30.064 
20:55	77.0	77.0	78.8	59	61.6	0	0	---	0.00	30.064 
21:00	76.5	76.5	78.4	60	61.6	0	0	---	0.00	30.067 
21:05	76.1	76.1	78.1	61	61.7	0	0	---	0.00	30.067 
21:10	75.6	75.6	77.7	62	61.6	0	0	---	0.00	30.067 
21:15	75.3	75.3	77.4	63	61.8	0	0	---	0.00	30.067 
21:20	74.9	74.9	74.9	64	61.9	0	0	---	0.00	30.067 
21:25	74.4	74.4	74.4	65	61.8	0	0	---	0.00	30.067 
21:30	74.0	74.0	74.0	65	61.5	0	0	---	0.00	30.067 
21:35	73.7	73.7	73.7	66	61.6	0	0	---	0.00	30.067 
21:40	73.3	73.3	73.3	67	61.7	0	0	---	0.00	30.067 
21:45	73.2	73.2	73.2	68	62.0	0	0	---	0.00	30.074 
21:50	72.8	72.8	72.8	69	62.0	0	0	---	0.00	30.074 
21:55	72.5	72.5	72.5	69	61.7	0	0	---	0.00	30.074 
22:00	72.3	72.3	72.3	70	62.0	0	0	---	0.00	30.081 
22:05	71.8	71.8	71.8	71	61.9	0	0	---	0.00	30.081 
22:10	71.6	71.6	71.6	72	62.1	0	0	---	0.00	30.081 
22:15	71.3	71.3	71.3	72	61.8	0	0	---	0.00	30.088 
22:20	71.1	71.1	71.1	74	62.4	0	0	---	0.00	30.088 
22:25	70.8	70.8	70.8	74	62.1	0	0	---	0.00	30.088 
22:30	70.4	70.4	70.4	75	62.1	0	0	---	0.00	30.085 
22:35	70.3	70.3	70.3	76	62.4	0	0	---	0.00	30.085 
22:40	69.9	69.9	69.9	77	62.3	0	0	---	0.00	30.085 
22:45	69.8	69.8	69.8	78	62.6	0	0	---	0.00	30.088 
22:50	69.6	69.6	69.6	80	63.1	0	0	---	0.00	30.088 
22:55	69.4	69.4	69.4	80	63.0	0	0	---	0.00	30.088 
23:00	69.3	69.3	69.3	81	63.2	0	0	---	0.00	30.090 
23:05	69.1	69.1	69.1	82	63.4	0	0	---	0.00	30.090 
23:10	68.9	68.9	68.9	83	63.5	0	0	---	0.00	30.090 
23:15	68.8	68.8	68.8	83	63.4	0	0	---	0.00	30.088 
23:20	68.6	68.6	68.6	84	63.6	0	0	---	0.00	30.088 
23:25	68.4	68.4	68.4	84	63.4	0	0	---	0.00	30.088 
23:30	68.3	68.3	68.3	85	63.6	0	0	---	0.00	30.085 
23:35	68.1	68.1	68.1	85	63.4	0	0	---	0.00	30.085 
23:40	67.9	67.9	67.9	86	63.5	0	0	---	0.00	30.085 
23:45	67.9	67.9	67.9	87	63.9	0	0	---	0.00	30.080 
23:50	67.9	67.9	67.9	88	64.2	0	0	---	0.00	30.080 
23:55	67.8	67.8	67.8	88	64.1	0	0	---	0.00	30.080 

CoCoRaHS
IN-AL-39
A2 Web Hosting
Creative Commons License
GoDaddy
search engine by freefind advanced

loaded 2018-11-17 00:00:19 • last modified 2010-11-18 10:43:29
Privacy PolicyDisclaimer
• wx.awcolley.com is powered by PmWiki v.2002016 •
• all content (unless otherwise noted) © 2018 A W Colley